Delta Poseidon — SVBF6 — position and weather

sailwx.info

Track history (hours):
 
Tides and Currents Weather Stations Pressure Air Temp Water Temp Dewpoint Dewpoint Depression Visibility Wind Speed Wind Dir Waves Ship Positions

Delta Poseidon

Last reported at 2014-Aug-18 18:14 UTC. Time now 2014-Sep-03 00:05 UTC.
Position S 33°50' E 017°48'.
Warning: this ship's position is 15 days out of date.

Length 274 m; draft 9 m.

Type: Tanker. MMSI: 241086000.

Date/timePositionNaut miles runAvg speedWind from/ knotsBaromVisibWave heightAir tempDewpointWater temp
2014-Aug-18 18:14S 33°50' E 017°48'810.5
2014-Aug-18 17:26S 33°57' E 017°52'1010.6
2014-Aug-18 16:33S 34°06' E 017°57'1210.5
2014-Aug-18 15:25S 34°17' E 018°03'910.3
2014-Aug-18 14:33S 34°25' E 018°08'1110.9
2014-Aug-18 13:33S 34°33' E 018°16'1110.9
2014-Aug-18 12:33S 34°40' E 018°27'1010.4
2014-Aug-18 11:33S 34°45' E 018°38'1110.5
2014-Aug-18 10:33S 34°50' E 018°49'1110.7
2014-Aug-18 09:32S 34°54' E 019°01'53511.1
2014-Aug-16 09:07S 32°24' E 029°19'16 9.7
2014-Aug-16 07:29S 32°13' E 029°32'140 9.2
2014-Aug-15 16:11S 30°16' E 031°03'5 7.6
2014-Aug-15 15:32S 30°11' E 031°04'8 7.8
2014-Aug-15 14:33S 30°04' E 031°06'8 8.1
2014-Aug-15 13:33S 29°56' E 031°08'4 4.2
2014-Aug-15 12:33S 29°52' E 031°08'1 1.4
2014-Aug-15 11:31S 29°53' E 031°07'1 1.0
2014-Aug-15 10:30S 29°54' E 031°07'3 2.7
2014-Aug-15 09:32S 29°56' E 031°06'2 2.4
2014-Aug-15 08:32S 29°57' E 031°03'5 1.1
2014-Aug-15 03:26S 30°00' E 030°58'0 0.0
2014-Aug-14 07:32S 30°00' E 030°59'7 6.7
2014-Aug-14 06:32S 29°55' E 031°04'3 3.6
2014-Aug-14 05:33S 29°53' E 031°07'6 5.6
2014-Aug-14 04:33S 29°59' E 031°07'1313.3
2014-Aug-14 03:33S 30°12' E 031°06'1312.6
2014-Aug-14 02:33S 30°24' E 031°04'1211.7
2014-Aug-14 01:30S 30°36' E 031°00'1111.0
2014-Aug-14 00:33S 30°46' E 030°55'1110.8
2014-Aug-13 23:33S 30°55' E 030°50'1110.9
2014-Aug-13 22:32S 31°05' E 030°43'1212.0
2014-Aug-13 21:33S 31°15' E 030°36'21210.9
2014-Aug-13 02:09S 33°49' E 027°43'8 9.3
2014-Aug-13 01:19S 33°53' E 027°35'10 9.2
2014-Aug-13 00:14S 33°58' E 027°25'30010.7
2014-Aug-11 20:04S 35°08' E 021°30'1112.0
2014-Aug-11 19:07S 35°09' E 021°16'2111.8
2014-Aug-11 17:22S 35°11' E 020°51'3411.8
2014-Aug-11 14:28S 35°14' E 020°09'1311.8
2014-Aug-11 13:21S 35°15' E 019°54'2411.6
2014-Aug-11 11:16S 35°10' E 019°25'4712.2
2014-Aug-11 07:24S 34°54' E 018°31'1011.9
2014-Aug-11 06:33S 34°49' E 018°19'2311.4
2014-Aug-11 04:33S 34°34' E 017°59'1312.6
2014-Aug-11 03:33S 34°23' E 017°51'1312.7
2014-Aug-11 02:32S 34°12' E 017°44'1612.9
2014-Aug-11 01:18S 33°58' E 017°34'1112.4
2014-Aug-11 00:26S 33°49' E 017°26'1111.8
2014-Aug-10 23:32S 33°40' E 017°19'26812.1
2014-Aug-10 01:27S 29°47' E 014°45'2711.9
2014-Aug-09 23:09S 29°22' E 014°32'812.3
2014-Aug-09 22:29S 29°15' E 014°28'1212.1
2014-Aug-09 21:30S 29°03' E 014°24'  
Track history (hours):
 
Tides and Currents Weather Stations Pressure Air Temp Water Temp Dewpoint Dewpoint Depression Visibility Wind Speed Wind Dir Waves Ship Positions

Delta Poseidon

Last reported at 2014-Aug-18 18:14 UTC. Time now 2014-Sep-03 00:05 UTC.
Position S 33°50' E 017°48'.
Warning: this ship's position is 15 days out of date.

Length 274 m; draft 9 m.

Type: Tanker. MMSI: 241086000.

Date/timePositionNaut miles runAvg speedWind from/ knotsBaromVisibWave heightAir tempDewpointWater temp
2014-Aug-18 18:14S 33°50' E 017°48'810.5
2014-Aug-18 17:26S 33°57' E 017°52'1010.6
2014-Aug-18 16:33S 34°06' E 017°57'1210.5
2014-Aug-18 15:25S 34°17' E 018°03'910.3
2014-Aug-18 14:33S 34°25' E 018°08'1110.9
2014-Aug-18 13:33S 34°33' E 018°16'1110.9
2014-Aug-18 12:33S 34°40' E 018°27'1010.4
2014-Aug-18 11:33S 34°45' E 018°38'1110.5
2014-Aug-18 10:33S 34°50' E 018°49'1110.7
2014-Aug-18 09:32S 34°54' E 019°01'53511.1
2014-Aug-16 09:07S 32°24' E 029°19'16 9.7
2014-Aug-16 07:29S 32°13' E 029°32'140 9.2
2014-Aug-15 16:11S 30°16' E 031°03'5 7.6
2014-Aug-15 15:32S 30°11' E 031°04'8 7.8
2014-Aug-15 14:33S 30°04' E 031°06'8 8.1
2014-Aug-15 13:33S 29°56' E 031°08'4 4.2
2014-Aug-15 12:33S 29°52' E 031°08'1 1.4
2014-Aug-15 11:31S 29°53' E 031°07'1 1.0
2014-Aug-15 10:30S 29°54' E 031°07'3 2.7
2014-Aug-15 09:32S 29°56' E 031°06'2 2.4
2014-Aug-15 08:32S 29°57' E 031°03'5 1.1
2014-Aug-15 03:26S 30°00' E 030°58'0 0.0
2014-Aug-14 07:32S 30°00' E 030°59'7 6.7
2014-Aug-14 06:32S 29°55' E 031°04'3 3.6
2014-Aug-14 05:33S 29°53' E 031°07'6 5.6
2014-Aug-14 04:33S 29°59' E 031°07'1313.3
2014-Aug-14 03:33S 30°12' E 031°06'1312.6
2014-Aug-14 02:33S 30°24' E 031°04'1211.7
2014-Aug-14 01:30S 30°36' E 031°00'1111.0
2014-Aug-14 00:33S 30°46' E 030°55'1110.8
2014-Aug-13 23:33S 30°55' E 030°50'1110.9
2014-Aug-13 22:32S 31°05' E 030°43'1212.0
2014-Aug-13 21:33S 31°15' E 030°36'21210.9
2014-Aug-13 02:09S 33°49' E 027°43'8 9.3
2014-Aug-13 01:19S 33°53' E 027°35'10 9.2
2014-Aug-13 00:14S 33°58' E 027°25'30010.7
2014-Aug-11 20:04S 35°08' E 021°30'1112.0
2014-Aug-11 19:07S 35°09' E 021°16'2111.8
2014-Aug-11 17:22S 35°11' E 020°51'3411.8
2014-Aug-11 14:28S 35°14' E 020°09'1311.8
2014-Aug-11 13:21S 35°15' E 019°54'2411.6
2014-Aug-11 11:16S 35°10' E 019°25'4712.2
2014-Aug-11 07:24S 34°54' E 018°31'1011.9
2014-Aug-11 06:33S 34°49' E 018°19'2311.4
2014-Aug-11 04:33S 34°34' E 017°59'1312.6
2014-Aug-11 03:33S 34°23' E 017°51'1312.7
2014-Aug-11 02:32S 34°12' E 017°44'1612.9
2014-Aug-11 01:18S 33°58' E 017°34'1112.4
2014-Aug-11 00:26S 33°49' E 017°26'1111.8
2014-Aug-10 23:32S 33°40' E 017°19'26812.1
2014-Aug-10 01:27S 29°47' E 014°45'2711.9
2014-Aug-09 23:09S 29°22' E 014°32'812.3
2014-Aug-09 22:29S 29°15' E 014°28'1212.1
2014-Aug-09 21:30S 29°03' E 014°24'  

Dump ship's entire track history